Página principal
METAR-TAF:

METAR-TAF

Aeroportos :

Nenana, Alasca, Estados Unidos

latitude: 64-33N, longitude: 149-05W, altura: 110 m

Observação actual do tempo

O boletim foi feito há 6 horas e 6 minutos, às 11:53 UTC
Vento calmo
Temperatura 11°C
Humidade 82%
Pressão 1012 hPa
Visibilidade: 16.1 km
Céu limpo

METAR: PANN 191153Z AUTO 00000KT 10SM CLR 11/08 A2988 RMK AO2 SLP122 T01060078 10217 20106 53011 TSNO $

Hora: 09:59 (17:59 UTC)


TAF: em falta

Observações e previsões do tempo de mais de 4000 aeroportos (mensagens METAR e TAF).

As estações disponíveis são os pontos amarelos e vermelhos sobre o mapa.

Mova o rato sobre o mapa para ver o nome da estação.

Depois clique no ponto para visualizar as observações e previsões meteorológicas.

Para alterar o mapa : clique nos botões verdes com uma cruz preta para aumentar o zoom; no botão verde com uma pitada de zoom; ou nas setas verdes para mapas adjacentes.


METAR-TAF: